DLH25K EDDF-LFRS
Flight info
| Callsign | DLH25K |
|---|---|
| Flight time | 1h 19m |
| Altitude | 34000 |
| Route | SOBRA2L/18 SOBRA Y180 DIK UN857 TOLVU/N0446F330 DCT RAPOR DCT GIMER DCT ESTOC UT300 ELCOB/N0375F180 A361 LGL/N0380F190 A5 VALAX VALAX1D |
| Aircraft | A320/M-SDE2E3FGIJ1LORWXYZ/HB1 |
Departure
| Time | 2026-05-07 16:15 |
|---|---|
| Airport | Frankfurt Main Airport (EDDF) |
Arrival
| Time | 2026-05-07 17:35 |
|---|---|
| Airport | Nantes Atlantique Airport (LFRS) |
| Time | Latitude | Longitude | Altitude | Speed | Heading |
|---|---|---|---|---|---|
| 2026-05-07 15:30 | 50.04394 | 8.57031 | 360 ft | 0 kts | 160° |
| 2026-05-07 16:05 | 50.04373 | 8.57042 | 366 ft | 6 kts | 160° |
| 2026-05-07 16:05 | 50.04331 | 8.57065 | 363 ft | 5 kts | 167° |
| 2026-05-07 16:05 | 50.04306 | 8.57027 | 360 ft | 10 kts | 245° |
| 2026-05-07 16:05 | 50.04276 | 8.56898 | 361 ft | 12 kts | 255° |
| 2026-05-07 16:06 | 50.04326 | 8.56819 | 361 ft | 12 kts | 8° |
| 2026-05-07 16:06 | 50.04403 | 8.56843 | 362 ft | 11 kts | 8° |
| 2026-05-07 16:06 | 50.04439 | 8.56774 | 359 ft | 12 kts | 254° |
| 2026-05-07 16:06 | 50.04395 | 8.56592 | 361 ft | 23 kts | 249° |
| 2026-05-07 16:07 | 50.04335 | 8.56343 | 357 ft | 25 kts | 250° |
| 2026-05-07 16:07 | 50.04273 | 8.56082 | 357 ft | 26 kts | 249° |
| 2026-05-07 16:07 | 50.04208 | 8.55809 | 355 ft | 28 kts | 249° |
| 2026-05-07 16:07 | 50.04139 | 8.55523 | 359 ft | 29 kts | 249° |
| 2026-05-07 16:08 | 50.04077 | 8.55264 | 360 ft | 23 kts | 249° |
| 2026-05-07 16:08 | 50.04021 | 8.55029 | 360 ft | 24 kts | 249° |
| 2026-05-07 16:08 | 50.03961 | 8.54777 | 353 ft | 26 kts | 249° |
| 2026-05-07 16:08 | 50.03896 | 8.54506 | 353 ft | 28 kts | 250° |
| 2026-05-07 16:09 | 50.03818 | 8.54280 | 350 ft | 24 kts | 236° |
| 2026-05-07 16:09 | 50.03754 | 8.54032 | 346 ft | 26 kts | 249° |
| 2026-05-07 16:09 | 50.03691 | 8.53767 | 351 ft | 27 kts | 249° |
| 2026-05-07 16:09 | 50.03621 | 8.53488 | 340 ft | 28 kts | 249° |
| 2026-05-07 16:10 | 50.03552 | 8.53201 | 339 ft | 26 kts | 250° |
| 2026-05-07 16:10 | 50.03496 | 8.52965 | 337 ft | 20 kts | 249° |
| 2026-05-07 16:10 | 50.03468 | 8.52862 | 333 ft | 7 kts | 246° |
| 2026-05-07 16:10 | 50.03454 | 8.52812 | 333 ft | 4 kts | 246° |
| 2026-05-07 16:11 | 50.03444 | 8.52776 | 333 ft | 3 kts | 248° |
| 2026-05-07 16:11 | 50.03436 | 8.52741 | 333 ft | 3 kts | 249° |
| 2026-05-07 16:11 | 50.03433 | 8.52728 | 331 ft | 0 kts | 249° |
| 2026-05-07 16:13 | 50.03422 | 8.52681 | 335 ft | 9 kts | 250° |
| 2026-05-07 16:13 | 50.03403 | 8.52607 | 333 ft | 5 kts | 242° |
| 2026-05-07 16:14 | 50.03378 | 8.52594 | 333 ft | 3 kts | 181° |
| 2026-05-07 16:14 | 50.03377 | 8.52594 | 333 ft | 0 kts | 180° |
| 2026-05-07 16:14 | 50.03368 | 8.52594 | 335 ft | 8 kts | 180° |
| 2026-05-07 16:15 | 50.03051 | 8.52596 | 335 ft | 83 kts | 179° |
| 2026-05-07 16:15 | 50.02257 | 8.52605 | 334 ft | 142 kts | 180° |
| 2026-05-07 16:15 | 50.01140 | 8.52625 | 643 ft | 165 kts | 182° |
| 2026-05-07 16:15 | 50.00012 | 8.52647 | 1435 ft | 167 kts | 179° |
| 2026-05-07 16:16 | 49.98722 | 8.52726 | 1931 ft | 186 kts | 178° |
| 2026-05-07 16:16 | 49.97424 | 8.52814 | 2378 ft | 202 kts | 178° |
| 2026-05-07 16:16 | 49.95927 | 8.52922 | 2787 ft | 228 kts | 178° |
| 2026-05-07 16:16 | 49.94324 | 8.53039 | 3625 ft | 233 kts | 178° |
| 2026-05-07 16:17 | 49.92696 | 8.53154 | 4590 ft | 235 kts | 180° |
| 2026-05-07 16:17 | 49.91030 | 8.53259 | 5544 ft | 238 kts | 180° |
| 2026-05-07 16:17 | 49.89369 | 8.53365 | 6455 ft | 240 kts | 180° |
| 2026-05-07 16:17 | 49.87695 | 8.53395 | 7285 ft | 243 kts | 188° |
| 2026-05-07 16:18 | 49.86021 | 8.52791 | 7897 ft | 257 kts | 202° |
| 2026-05-07 16:18 | 49.84280 | 8.51789 | 8425 ft | 274 kts | 202° |
| 2026-05-07 16:18 | 49.82467 | 8.50747 | 9277 ft | 280 kts | 202° |
| 2026-05-07 16:18 | 49.80629 | 8.49698 | 10152 ft | 286 kts | 202° |
| 2026-05-07 16:19 | 49.78706 | 8.48526 | 10523 ft | 308 kts | 209° |
| 2026-05-07 16:19 | 49.77027 | 8.46348 | 10801 ft | 327 kts | 235° |
| 2026-05-07 16:19 | 49.76128 | 8.43084 | 11347 ft | 337 kts | 261° |
| 2026-05-07 16:19 | 49.76240 | 8.39452 | 12048 ft | 343 kts | 282° |
| 2026-05-07 16:20 | 49.76798 | 8.35847 | 12729 ft | 347 kts | 283° |
| 2026-05-07 16:20 | 49.77386 | 8.32215 | 12959 ft | 348 kts | 284° |
| 2026-05-07 16:20 | 49.77990 | 8.28558 | 13472 ft | 352 kts | 284° |
| 2026-05-07 16:20 | 49.78599 | 8.24871 | 14244 ft | 355 kts | 284° |
| 2026-05-07 16:21 | 49.79206 | 8.21152 | 14943 ft | 359 kts | 283° |
| 2026-05-07 16:21 | 49.79811 | 8.17388 | 15635 ft | 362 kts | 283° |
| 2026-05-07 16:21 | 49.80416 | 8.13586 | 16319 ft | 365 kts | 283° |
| 2026-05-07 16:21 | 49.81024 | 8.09745 | 17003 ft | 369 kts | 283° |
| 2026-05-07 16:22 | 49.81637 | 8.05872 | 17670 ft | 372 kts | 283° |
| 2026-05-07 16:22 | 49.82255 | 8.01964 | 18311 ft | 376 kts | 283° |
| 2026-05-07 16:22 | 49.82880 | 7.98010 | 18866 ft | 379 kts | 283° |
| 2026-05-07 16:22 | 49.83505 | 7.94036 | 19410 ft | 382 kts | 283° |
| 2026-05-07 16:23 | 49.84138 | 7.90015 | 19967 ft | 385 kts | 283° |
| 2026-05-07 16:23 | 49.84771 | 7.85976 | 20508 ft | 388 kts | 283° |
| 2026-05-07 16:23 | 49.85407 | 7.81892 | 21051 ft | 391 kts | 283° |
| 2026-05-07 16:23 | 49.86047 | 7.77785 | 21598 ft | 394 kts | 283° |
| 2026-05-07 16:24 | 49.86696 | 7.73640 | 22136 ft | 397 kts | 283° |
| 2026-05-07 16:24 | 49.87353 | 7.69468 | 22647 ft | 400 kts | 283° |
| 2026-05-07 16:24 | 49.88012 | 7.65270 | 23180 ft | 403 kts | 283° |
| 2026-05-07 16:24 | 49.88672 | 7.61031 | 23674 ft | 406 kts | 283° |
| 2026-05-07 16:25 | 49.89334 | 7.56759 | 24106 ft | 408 kts | 283° |
| 2026-05-07 16:25 | 49.89992 | 7.52474 | 24543 ft | 411 kts | 283° |
| 2026-05-07 16:25 | 49.90654 | 7.48145 | 24976 ft | 413 kts | 283° |
| 2026-05-07 16:25 | 49.91320 | 7.43784 | 25391 ft | 415 kts | 283° |
| 2026-05-07 16:26 | 49.91985 | 7.39423 | 25794 ft | 418 kts | 282° |
| 2026-05-07 16:26 | 49.92651 | 7.35033 | 26197 ft | 420 kts | 282° |
| 2026-05-07 16:26 | 49.93322 | 7.30602 | 26588 ft | 422 kts | 282° |
| 2026-05-07 16:26 | 49.93995 | 7.26156 | 26988 ft | 425 kts | 282° |
| 2026-05-07 16:27 | 49.94673 | 7.21677 | 27399 ft | 427 kts | 282° |
| 2026-05-07 16:27 | 49.95351 | 7.17177 | 27783 ft | 429 kts | 282° |
| 2026-05-07 16:27 | 49.96030 | 7.12652 | 28167 ft | 432 kts | 282° |
| 2026-05-07 16:27 | 49.96712 | 7.08094 | 28526 ft | 434 kts | 282° |
| 2026-05-07 16:28 | 49.97394 | 7.03515 | 28863 ft | 436 kts | 282° |
| 2026-05-07 16:28 | 49.98077 | 6.98901 | 29178 ft | 439 kts | 282° |
| 2026-05-07 16:28 | 49.98759 | 6.94266 | 29490 ft | 441 kts | 281° |
| 2026-05-07 16:28 | 49.99187 | 6.89547 | 29808 ft | 442 kts | 272° |
| 2026-05-07 16:29 | 49.99167 | 6.84758 | 30124 ft | 444 kts | 266° |
| 2026-05-07 16:29 | 49.99015 | 6.79962 | 30386 ft | 446 kts | 266° |
| 2026-05-07 16:29 | 49.98867 | 6.75147 | 30764 ft | 445 kts | 266° |
| 2026-05-07 16:29 | 49.98723 | 6.70344 | 31154 ft | 444 kts | 266° |
| 2026-05-07 16:30 | 49.98582 | 6.65559 | 31544 ft | 443 kts | 266° |
| 2026-05-07 16:30 | 49.98428 | 6.60787 | 31939 ft | 442 kts | 264° |
| 2026-05-07 16:30 | 49.97952 | 6.56085 | 32322 ft | 440 kts | 256° |
| 2026-05-07 16:30 | 49.97014 | 6.51566 | 32703 ft | 439 kts | 247° |
| 2026-05-07 16:31 | 49.95797 | 6.47231 | 33069 ft | 438 kts | 246° |
| 2026-05-07 16:31 | 49.94576 | 6.42892 | 33463 ft | 437 kts | 246° |
| 2026-05-07 16:31 | 49.93367 | 6.38584 | 33848 ft | 436 kts | 246° |
| 2026-05-07 16:31 | 49.92154 | 6.34265 | 33962 ft | 435 kts | 246° |
| 2026-05-07 16:32 | 49.90947 | 6.29964 | 33974 ft | 434 kts | 246° |
| 2026-05-07 16:32 | 49.88497 | 6.21439 | 33992 ft | 433 kts | 245° |
| 2026-05-07 16:33 | 49.85977 | 6.12973 | 33998 ft | 432 kts | 240° |
| 2026-05-07 16:33 | 49.82606 | 6.05268 | 34005 ft | 432 kts | 235° |
| 2026-05-07 16:34 | 49.79097 | 5.97638 | 34006 ft | 432 kts | 234° |
| 2026-05-07 16:34 | 49.75620 | 5.90124 | 34000 ft | 432 kts | 235° |
| 2026-05-07 16:35 | 49.72948 | 5.81768 | 33989 ft | 432 kts | 250° |
| 2026-05-07 16:35 | 49.70948 | 5.73076 | 33958 ft | 432 kts | 250° |
| 2026-05-07 16:36 | 49.68909 | 5.64336 | 33942 ft | 433 kts | 250° |
| 2026-05-07 16:36 | 49.66851 | 5.55544 | 33805 ft | 432 kts | 250° |
| 2026-05-07 16:36 | 49.65833 | 5.51179 | 33606 ft | 432 kts | 250° |
| 2026-05-07 16:37 | 49.64810 | 5.46811 | 33419 ft | 432 kts | 250° |
| 2026-05-07 16:37 | 49.63798 | 5.42510 | 33219 ft | 433 kts | 250° |
| 2026-05-07 16:37 | 49.62750 | 5.38090 | 33023 ft | 433 kts | 249° |
| 2026-05-07 16:38 | 49.60766 | 5.29307 | 32957 ft | 434 kts | 251° |
| 2026-05-07 16:38 | 49.58908 | 5.20440 | 32953 ft | 435 kts | 252° |
| 2026-05-07 16:39 | 49.57282 | 5.11473 | 32956 ft | 435 kts | 255° |
| 2026-05-07 16:39 | 49.55778 | 5.02440 | 32955 ft | 435 kts | 255° |
| 2026-05-07 16:40 | 49.54221 | 4.93438 | 32952 ft | 435 kts | 254° |
| 2026-05-07 16:40 | 49.52673 | 4.84809 | 32951 ft | 435 kts | 254° |
| 2026-05-07 16:41 | 49.51043 | 4.75849 | 32951 ft | 435 kts | 254° |
| 2026-05-07 16:41 | 49.49414 | 4.66884 | 32940 ft | 435 kts | 254° |
| 2026-05-07 16:42 | 49.47776 | 4.57917 | 32950 ft | 435 kts | 254° |
| 2026-05-07 16:42 | 49.46135 | 4.48957 | 32956 ft | 436 kts | 254° |
| 2026-05-07 16:43 | 49.44490 | 4.39992 | 32977 ft | 436 kts | 253° |
| 2026-05-07 16:43 | 49.42838 | 4.31019 | 32991 ft | 436 kts | 254° |
| 2026-05-07 16:44 | 49.41174 | 4.22055 | 33011 ft | 437 kts | 253° |
| 2026-05-07 16:44 | 49.39500 | 4.13085 | 33014 ft | 437 kts | 253° |
| 2026-05-07 16:45 | 49.37817 | 4.04114 | 33017 ft | 437 kts | 253° |
| 2026-05-07 16:45 | 49.36145 | 3.95145 | 33009 ft | 438 kts | 255° |
| 2026-05-07 16:46 | 49.34785 | 3.86049 | 32992 ft | 438 kts | 258° |
| 2026-05-07 16:46 | 49.33585 | 3.76886 | 32968 ft | 438 kts | 258° |
| 2026-05-07 16:47 | 49.32333 | 3.67745 | 32950 ft | 438 kts | 257° |
| 2026-05-07 16:47 | 49.31003 | 3.58619 | 32936 ft | 438 kts | 257° |
| 2026-05-07 16:48 | 49.29653 | 3.49511 | 32940 ft | 438 kts | 257° |
| 2026-05-07 16:48 | 49.28300 | 3.40338 | 32940 ft | 438 kts | 257° |
| 2026-05-07 16:49 | 49.26960 | 3.31297 | 32943 ft | 439 kts | 257° |
| 2026-05-07 16:49 | 49.25612 | 3.22186 | 32940 ft | 439 kts | 257° |
| 2026-05-07 16:50 | 49.24260 | 3.13078 | 32943 ft | 439 kts | 257° |
| 2026-05-07 16:50 | 49.23112 | 3.05454 | 32942 ft | 439 kts | 256° |
| 2026-05-07 16:51 | 49.21729 | 2.96354 | 32952 ft | 439 kts | 256° |
| 2026-05-07 16:51 | 49.20815 | 2.90336 | 32967 ft | 439 kts | 257° |
| 2026-05-07 16:52 | 49.20196 | 2.86583 | 33014 ft | 438 kts | 255° |
| 2026-05-07 16:53 | 49.18779 | 2.77518 | 32995 ft | 438 kts | 257° |
| 2026-05-07 16:53 | 49.17445 | 2.68439 | 33002 ft | 438 kts | 257° |
| 2026-05-07 16:54 | 49.16079 | 2.59357 | 33017 ft | 439 kts | 257° |
| 2026-05-07 16:54 | 49.14665 | 2.50275 | 33020 ft | 440 kts | 256° |
| 2026-05-07 16:55 | 49.13226 | 2.41186 | 33018 ft | 441 kts | 256° |
| 2026-05-07 16:55 | 49.12264 | 2.31987 | 33011 ft | 441 kts | 262° |
| 2026-05-07 16:56 | 49.11408 | 2.22645 | 33009 ft | 442 kts | 262° |
| 2026-05-07 16:56 | 49.10100 | 2.08712 | 33028 ft | 442 kts | 262° |
| 2026-05-07 16:57 | 49.09234 | 1.99420 | 33034 ft | 442 kts | 263° |
| 2026-05-07 16:57 | 49.08527 | 1.90102 | 33035 ft | 442 kts | 264° |
| 2026-05-07 16:58 | 49.07859 | 1.80775 | 33021 ft | 442 kts | 264° |
| 2026-05-07 16:58 | 49.07155 | 1.71446 | 33038 ft | 442 kts | 264° |
| 2026-05-07 16:59 | 49.06418 | 1.62137 | 33042 ft | 443 kts | 264° |
| 2026-05-07 16:59 | 49.05669 | 1.52819 | 33034 ft | 443 kts | 264° |
| 2026-05-07 17:00 | 49.04919 | 1.43499 | 33028 ft | 443 kts | 264° |
| 2026-05-07 17:00 | 49.04160 | 1.34114 | 33015 ft | 443 kts | 264° |
| 2026-05-07 17:01 | 49.03308 | 1.24817 | 33023 ft | 444 kts | 258° |
| 2026-05-07 17:01 | 49.01100 | 1.16042 | 33018 ft | 446 kts | 243° |
| 2026-05-07 17:02 | 48.98203 | 1.07700 | 33010 ft | 446 kts | 243° |
| 2026-05-07 17:02 | 48.95311 | 0.99359 | 33017 ft | 446 kts | 243° |
| 2026-05-07 17:03 | 48.92412 | 0.91000 | 33039 ft | 446 kts | 243° |
| 2026-05-07 17:03 | 48.89502 | 0.82662 | 33033 ft | 447 kts | 243° |
| 2026-05-07 17:04 | 48.86572 | 0.74338 | 33030 ft | 447 kts | 243° |
| 2026-05-07 17:04 | 48.83643 | 0.66017 | 33028 ft | 447 kts | 243° |
| 2026-05-07 17:05 | 48.80707 | 0.57700 | 33020 ft | 446 kts | 243° |
| 2026-05-07 17:05 | 48.77298 | 0.49861 | 33020 ft | 448 kts | 231° |
| 2026-05-07 17:06 | 48.73252 | 0.42678 | 33010 ft | 448 kts | 231° |
| 2026-05-07 17:06 | 48.69214 | 0.35501 | 33013 ft | 447 kts | 231° |
| 2026-05-07 17:07 | 48.65176 | 0.28347 | 33009 ft | 447 kts | 231° |
| 2026-05-07 17:07 | 48.61133 | 0.21214 | 33006 ft | 447 kts | 231° |
| 2026-05-07 17:08 | 48.56929 | 0.14302 | 33007 ft | 448 kts | 222° |
| 2026-05-07 17:08 | 48.52180 | 0.08209 | 33012 ft | 448 kts | 221° |
| 2026-05-07 17:09 | 48.47387 | 0.02104 | 33013 ft | 448 kts | 221° |
| 2026-05-07 17:09 | 48.42632 | -0.03941 | 33015 ft | 447 kts | 221° |
| 2026-05-07 17:10 | 48.37878 | -0.09968 | 33007 ft | 446 kts | 221° |
| 2026-05-07 17:10 | 48.33129 | -0.15970 | 33004 ft | 446 kts | 221° |
| 2026-05-07 17:11 | 48.28414 | -0.21922 | 33003 ft | 445 kts | 221° |
| 2026-05-07 17:11 | 48.23672 | -0.27893 | 32802 ft | 447 kts | 221° |
| 2026-05-07 17:12 | 48.21293 | -0.30881 | 32385 ft | 446 kts | 221° |
| 2026-05-07 17:12 | 48.18915 | -0.33860 | 31983 ft | 445 kts | 221° |
| 2026-05-07 17:12 | 48.16536 | -0.36837 | 31591 ft | 445 kts | 221° |
| 2026-05-07 17:12 | 48.14125 | -0.39856 | 31201 ft | 446 kts | 221° |
| 2026-05-07 17:13 | 48.11782 | -0.42790 | 30818 ft | 446 kts | 221° |
| 2026-05-07 17:13 | 48.09398 | -0.45771 | 30240 ft | 446 kts | 221° |
| 2026-05-07 17:13 | 48.07018 | -0.48742 | 29550 ft | 446 kts | 220° |
| 2026-05-07 17:13 | 48.04639 | -0.51705 | 28833 ft | 443 kts | 220° |
| 2026-05-07 17:14 | 48.02280 | -0.54636 | 28144 ft | 439 kts | 220° |
| 2026-05-07 17:14 | 47.99944 | -0.57537 | 27469 ft | 434 kts | 221° |
| 2026-05-07 17:14 | 47.97632 | -0.60406 | 26809 ft | 430 kts | 220° |
| 2026-05-07 17:14 | 47.95339 | -0.63244 | 26162 ft | 426 kts | 220° |
| 2026-05-07 17:15 | 47.93070 | -0.66047 | 25520 ft | 422 kts | 220° |
| 2026-05-07 17:15 | 47.90818 | -0.68829 | 24915 ft | 418 kts | 221° |
| 2026-05-07 17:15 | 47.88593 | -0.71579 | 24307 ft | 414 kts | 221° |
| 2026-05-07 17:15 | 47.86394 | -0.74294 | 23719 ft | 410 kts | 221° |
| 2026-05-07 17:16 | 47.84203 | -0.76995 | 23040 ft | 406 kts | 221° |
| 2026-05-07 17:16 | 47.82004 | -0.79700 | 22347 ft | 403 kts | 221° |
| 2026-05-07 17:16 | 47.79847 | -0.82346 | 21674 ft | 401 kts | 220° |
| 2026-05-07 17:16 | 47.77704 | -0.84971 | 21068 ft | 397 kts | 220° |
| 2026-05-07 17:17 | 47.75587 | -0.87567 | 20472 ft | 393 kts | 220° |
| 2026-05-07 17:17 | 47.73485 | -0.90147 | 19859 ft | 391 kts | 220° |
| 2026-05-07 17:17 | 47.71391 | -0.92715 | 19272 ft | 389 kts | 220° |
| 2026-05-07 17:17 | 47.69311 | -0.95256 | 18699 ft | 386 kts | 220° |
| 2026-05-07 17:18 | 47.67244 | -0.97772 | 18126 ft | 384 kts | 220° |
| 2026-05-07 17:18 | 47.65182 | -1.00277 | 17520 ft | 381 kts | 220° |
| 2026-05-07 17:18 | 47.63138 | -1.02755 | 16949 ft | 378 kts | 220° |
| 2026-05-07 17:18 | 47.61106 | -1.05214 | 16386 ft | 376 kts | 220° |
| 2026-05-07 17:19 | 47.59087 | -1.07655 | 15852 ft | 373 kts | 220° |
| 2026-05-07 17:19 | 47.57084 | -1.10076 | 15334 ft | 370 kts | 220° |
| 2026-05-07 17:19 | 47.55100 | -1.12487 | 15014 ft | 369 kts | 221° |
| 2026-05-07 17:19 | 47.53133 | -1.14939 | 14956 ft | 369 kts | 221° |
| 2026-05-07 17:20 | 47.51177 | -1.17414 | 14753 ft | 371 kts | 221° |
| 2026-05-07 17:20 | 47.49317 | -1.19785 | 14145 ft | 367 kts | 222° |
| 2026-05-07 17:20 | 47.47394 | -1.22237 | 13466 ft | 364 kts | 221° |
| 2026-05-07 17:20 | 47.45488 | -1.24656 | 12747 ft | 360 kts | 221° |
| 2026-05-07 17:21 | 47.43597 | -1.27041 | 12041 ft | 356 kts | 221° |
| 2026-05-07 17:21 | 47.41714 | -1.29405 | 11530 ft | 352 kts | 221° |
| 2026-05-07 17:21 | 47.39851 | -1.31738 | 11281 ft | 351 kts | 221° |
| 2026-05-07 17:21 | 47.37989 | -1.34065 | 11028 ft | 350 kts | 221° |
| 2026-05-07 17:22 | 47.36133 | -1.36384 | 10772 ft | 349 kts | 221° |
| 2026-05-07 17:22 | 47.34528 | -1.38388 | 10565 ft | 347 kts | 221° |
| 2026-05-07 17:22 | 47.32688 | -1.40684 | 10324 ft | 346 kts | 221° |
| 2026-05-07 17:22 | 47.30854 | -1.42973 | 10076 ft | 345 kts | 221° |
| 2026-05-07 17:23 | 47.29017 | -1.45256 | 9830 ft | 344 kts | 221° |
| 2026-05-07 17:23 | 47.27191 | -1.47525 | 9568 ft | 343 kts | 221° |
| 2026-05-07 17:23 | 47.25373 | -1.49783 | 9291 ft | 342 kts | 221° |
| 2026-05-07 17:23 | 47.23560 | -1.52040 | 9034 ft | 341 kts | 221° |
| 2026-05-07 17:24 | 47.21746 | -1.54292 | 8770 ft | 340 kts | 221° |
| 2026-05-07 17:24 | 47.19942 | -1.56527 | 8510 ft | 339 kts | 221° |
| 2026-05-07 17:24 | 47.18139 | -1.58755 | 8245 ft | 338 kts | 221° |
| 2026-05-07 17:24 | 47.16951 | -1.60223 | 8078 ft | 337 kts | 221° |
| 2026-05-07 17:25 | 47.15223 | -1.62520 | 7817 ft | 331 kts | 229° |
| 2026-05-07 17:25 | 47.13821 | -1.65117 | 7573 ft | 318 kts | 233° |
| 2026-05-07 17:25 | 47.12490 | -1.67637 | 7390 ft | 306 kts | 233° |
| 2026-05-07 17:25 | 47.11211 | -1.70054 | 7218 ft | 294 kts | 232° |
| 2026-05-07 17:26 | 47.09975 | -1.72377 | 7050 ft | 284 kts | 232° |
| 2026-05-07 17:26 | 47.08755 | -1.74599 | 6802 ft | 276 kts | 231° |
| 2026-05-07 17:26 | 47.07572 | -1.76719 | 6549 ft | 260 kts | 231° |
| 2026-05-07 17:26 | 47.06456 | -1.78707 | 6310 ft | 246 kts | 230° |
| 2026-05-07 17:27 | 47.05386 | -1.80612 | 6043 ft | 240 kts | 230° |
| 2026-05-07 17:27 | 47.04336 | -1.82486 | 5781 ft | 235 kts | 230° |
| 2026-05-07 17:27 | 47.03308 | -1.84326 | 5512 ft | 231 kts | 230° |
| 2026-05-07 17:27 | 47.02296 | -1.86143 | 5267 ft | 229 kts | 230° |
| 2026-05-07 17:28 | 47.01193 | -1.87799 | 5014 ft | 226 kts | 209° |
| 2026-05-07 17:28 | 46.99685 | -1.88254 | 4758 ft | 220 kts | 167° |
| 2026-05-07 17:28 | 46.98385 | -1.87196 | 4500 ft | 217 kts | 134° |
| 2026-05-07 17:28 | 46.97347 | -1.85573 | 4243 ft | 218 kts | 129° |
| 2026-05-07 17:29 | 46.96396 | -1.83854 | 3979 ft | 217 kts | 126° |
| 2026-05-07 17:29 | 46.95516 | -1.82065 | 3702 ft | 215 kts | 124° |
| 2026-05-07 17:29 | 46.94718 | -1.80233 | 3451 ft | 213 kts | 119° |
| 2026-05-07 17:29 | 46.94436 | -1.78158 | 3202 ft | 213 kts | 79° |
| 2026-05-07 17:30 | 46.95201 | -1.76362 | 3027 ft | 212 kts | 37° |
| 2026-05-07 17:30 | 46.96458 | -1.75338 | 3017 ft | 201 kts | 28° |
| 2026-05-07 17:30 | 46.97680 | -1.74439 | 3013 ft | 191 kts | 28° |
| 2026-05-07 17:30 | 46.98850 | -1.73562 | 3020 ft | 188 kts | 28° |
| 2026-05-07 17:31 | 47.00006 | -1.72689 | 3009 ft | 186 kts | 28° |
| 2026-05-07 17:31 | 47.01158 | -1.71819 | 2922 ft | 187 kts | 28° |
| 2026-05-07 17:31 | 47.02307 | -1.70950 | 2722 ft | 185 kts | 28° |
| 2026-05-07 17:31 | 47.03441 | -1.70091 | 2484 ft | 181 kts | 28° |
| 2026-05-07 17:32 | 47.04525 | -1.69271 | 2252 ft | 170 kts | 28° |
| 2026-05-07 17:32 | 47.05559 | -1.68487 | 2028 ft | 165 kts | 27° |
| 2026-05-07 17:32 | 47.06550 | -1.67735 | 1819 ft | 155 kts | 27° |
| 2026-05-07 17:32 | 47.07478 | -1.67031 | 1617 ft | 145 kts | 27° |
| 2026-05-07 17:33 | 47.08345 | -1.66374 | 1436 ft | 137 kts | 27° |
| 2026-05-07 17:33 | 47.09187 | -1.65734 | 1233 ft | 135 kts | 27° |
| 2026-05-07 17:33 | 47.10019 | -1.65102 | 1051 ft | 134 kts | 27° |
| 2026-05-07 17:33 | 47.10848 | -1.64470 | 859 ft | 135 kts | 27° |
| 2026-05-07 17:34 | 47.11682 | -1.63835 | 680 ft | 135 kts | 27° |
| 2026-05-07 17:34 | 47.12516 | -1.63203 | 506 ft | 135 kts | 27° |
| 2026-05-07 17:34 | 47.13358 | -1.62564 | 318 ft | 136 kts | 28° |
| 2026-05-07 17:34 | 47.14200 | -1.61923 | 133 ft | 136 kts | 28° |
| 2026-05-07 17:35 | 47.14982 | -1.61328 | 95 ft | 109 kts | 27° |
| 2026-05-07 17:35 | 47.15499 | -1.60935 | 93 ft | 59 kts | 27° |
| 2026-05-07 17:35 | 47.15736 | -1.60755 | 97 ft | 27 kts | 27° |
| 2026-05-07 17:35 | 47.15836 | -1.60668 | 95 ft | 13 kts | 49° |
| 2026-05-07 17:36 | 47.15826 | -1.60556 | 95 ft | 12 kts | 124° |
| 2026-05-07 17:36 | 47.15778 | -1.60480 | 98 ft | 8 kts | 141° |
| 2026-05-07 17:36 | 47.15739 | -1.60438 | 99 ft | 5 kts | 146° |
| 2026-05-07 17:36 | 47.15705 | -1.60404 | 99 ft | 8 kts | 143° |
| 2026-05-07 17:37 | 47.15664 | -1.60350 | 99 ft | 7 kts | 139° |
| 2026-05-07 17:37 | 47.15629 | -1.60305 | 101 ft | 6 kts | 132° |
| 2026-05-07 17:37 | 47.15645 | -1.60255 | 101 ft | 7 kts | 38° |
| 2026-05-07 17:37 | 47.15677 | -1.60224 | 98 ft | 3 kts | 35° |
| 2026-05-07 17:38 | 47.15689 | -1.60210 | 99 ft | 1 kts | 35° |
| 2026-05-07 17:38 | 47.15690 | -1.60210 | 98 ft | 0 kts | 36° |